NWS Home NWS Lubbock West Texas Mesonet North Sector Latest Conditions as of 0805 PM, Tue Jan 15, 2019

Latest   N   C   S   Daily Sum   3hrΔ   24hrΔ   Soil Data 
Site Map   24hr Precip   72hr Precip   Google Plot


Station Time of Last Temp Dew Pt. RH Wind Direction Wind Speed Wind Gust Max Wind Max Temp Min Temp Max RH Min RH Altimeter 1HR Rain Today's Rain Solar Rad Wind Chill
Adrian 6WSW  08:00 PM 43 32 64% S1111 25 mph 255° @ 0109 PM 60 31 93 33 30.08" 0 0.00 0  
Aiken 3WSW  08:00 PM 41 33 75% S1213 20 mph 234° @ 0548 AM 61 28 98 41 30.11" 0 0.00 0  
Amarillo 15NNW   08:00 PM 46 29 51% NE88 12 mph 322° @ 0123 PM 66 29 100 28 30.07" 0 0.00 0  
Amarillo 7SSE  08:00 PM 39 27 62% W89 20 mph 249° @ 1248 PM 66 28 100 26 30.09" 0 0.00 0  
Amarillo 9NNE  08:00 PM 44 31 61% SE23 17 mph 249° @ 0152 PM 66 31 95 26 30.07" 0 0.00 0  
Amherst 1NE  08:00 PM 49 29 46% SW1115 21 mph 259° @ 0425 PM 65 32 97 22 30.11" 0 0.00 0  
Bootleg 11WNW  08:00 PM 44 31 59% SW1213 28 mph 255° @ 0114 PM 63 31 100 27 30.12" 0 0.00 0  
Boys Ranch 1WSW  08:00 PM 39 28 64% S11 18 mph 250° @ 0109 PM 63 24 99 28 30.08" 0 0.00 0  
Canadian 6E  08:00 PM 44 38 81% E1011 18 mph 157° @ 0415 PM 59 26 100 47 30.08" 0 0.00 0  
Caprock Canyons State Park  08:00 PM 49 37 62% SW1516 29 mph 247° @ 1256 AM 63 37 93 37 30.09" 0 0.00 0  
Childress 2NNE  08:00 PM 44 39 86% SE1112 20 mph 151° @ 0455 PM 59 33 96 50 30.10" 0 0.00 0  
Clarendon 2WSW  08:00 PM 47 38 72% SE1318 19 mph 226° @ 0315 AM 58 34 92 50 30.07" 0 0.00 0  
Claude 12SW  08:00 PM 51 34 52% S89 18 mph 226° @ 0223 PM 63 32 99 34 30.08" 0 0.00 0  
Dimmitt 2NE  08:00 PM 46 30 54% SW68 25 mph 229° @ 0220 PM 63 31 100 26 30.10" 0 0.00 0  
Dozier 3W  08:00 PM 44 39 84% SE78 17 mph 176° @ 0225 PM 57 28 100 53 30.11" 0 0.00 0  
Earth 9WSW  08:00 PM 56 33 41% SW1315 25 mph 245° @ 0230 PM 66 33 98 21 30.11" 0 0.00 0  
Endee NM 2SW  08:00 PM 47 33 59% S910 26 mph 250° @ 0150 PM 64 29 97 29 30.08" 0 0.00 0  
Estelline 3SSE  08:00 PM 47 40 77% SE1417 19 mph 152° @ 0753 PM 62 34 96 45 30.09" 0 0.00 0  
Floydada 2NNE  08:00 PM 46 36 68% S1114 20 mph 237° @ 0830 AM 60 33 94 41 30.10" 0 0.00 0  
Friona 2NE  08:00 PM 41 29 63% S1111 28 mph 230° @ 0120 PM 65 28 100 24 30.11" 0 0.00 0  
Fritch 1WNW  08:00 PM 49 37 64% SE1012 15 mph 209° @ 0917 AM 63 33 90 30 30.07" 0 0.00 0  
Goodlett 3W  08:00 PM 42 39 89% SE89 20 mph 182° @ 0100 PM 57 29 99 55 30.11" 0 0.00 0  
Goodnight  08:00 PM 42 36 80% SE67 22 mph 237° @ 0155 AM 60 33 97 47 30.09" 0 0.00 0  
Happy 1E  08:00 PM 39 27 63% SW99 23 mph 226° @ 0251 PM 63 30 100 31 30.09" 0 0.00 0  
Hart 3N  08:00 PM 43 28 55% SW1011 24 mph 238° @ 0250 PM 63 30 100 25 30.09" 0 0.01 0  
Hereford 2NW  08:00 PM 44 28 54% SW810 27 mph 256° @ 0155 PM 66 30 94 20 30.09" 0 0.00 0  
Lesley 2S  08:00 PM 46 39 76% E89 16 mph 112° @ 0612 PM 62 33 97 45 30.08" 0 0.00 0  
McLean 1E  08:00 PM 43 37 81% SE1013 19 mph 168° @ 0440 PM 56 33 94 50 30.07" 0 0.00 0  
Memphis 1NE  08:00 PM 46 39 79% SE710 15 mph 141° @ 0415 PM 60 29 99 49 30.09" 0 0.00 0  
Muleshoe 2SSW  08:00 PM 46 29 51% SW1012 23 mph 261° @ 0305 PM 65 33 100 20 30.10" 0 0.00 0  
Northfield 1S  08:00 PM 49 39 70% S1519 19 mph 170° @ 0755 PM 63 35 95 40 30.09" 0 0.00 0  
Odell 4ENE  08:00 PM 45 42 88% S1315 19 mph 195° @ 0132 PM 53 34 98 67 30.15" 0 0.00 0  
Olton 6S  08:00 PM 43 34 72% S1011 20 mph 204° @ 0430 PM 61 30 97 38 30.10" 0 0.00 0  
Palo Duro 4E (JA Ranch)  08:00 PM 40 35 82% SW33 20 mph 253° @ 0746 AM 61 35 93 47 30.09" 0 0.00 0  
Palo Duro Canyon SP Floor  08:00 PM 51 32 50% N23 15 mph 296° @ 0132 PM 68 32 94 28 30.07" 0 0.00 0  
Palo Duro Canyon State Park Rim  08:00 PM 48 30 48% E33 20 mph 208° @ 0146 PM 66 31 93 30 30.09" 0 0.00 0  
Palo Duro Reservoir 1NW   08:00 PM 40 35 82% NE1010 11 mph 30° @ 0751 PM 59 23 99 42 30.09" 0 0.00 0  
Pampa 2E  08:00 PM 41 36 85% SE1011 19 mph 204° @ 0225 PM 62 32 97 42 30.08" 0 0.00 0  
Panhandle 1SSW  08:00 PM 43 36 76% SE79 21 mph 221° @ 0247 PM 64 28 97 35 30.09" 0 0.00 0  
Plainview 1S  08:00 PM 44 36 73% S810 20 mph 235° @ 0405 PM 61 30 99 42 30.10" 0 0.00 0  
Romero 11 SSW  08:00 PM 49 30 48% E77 19 mph 242° @ 1142 AM 61 28 97 31 30.06" 0 0.00 0  
Silverton 7ESE  08:00 PM 43 33 69% S1011 23 mph 241° @ 0850 AM 63 34 100 36 30.09" 0 0.00 0  
South Plains 3ENE  08:00 PM 41 34 78% S911 22 mph 224° @ 0831 AM 62 33 97 39 30.10" 0 0.00 0  
Stinnett 1NNW  08:00 PM 45 33 62% NE56 19 mph 234° @ 0241 PM 61 29 96 33 30.09" 0 0.00 0  
Tulia 2ENE  08:00 PM 44 33 66% S1114 22 mph 241° @ 0350 PM 62 31 98 31 30.09" 0 0.00 0  
Turkey 2WSW  08:00 PM 46 37 72% SE1011 20 mph 215° @ 0220 AM 63 37 93 40 30.08" 0 0.00 0  
Umbarger 3NNE  08:00 PM 44 30 58% SW1011 21 mph 235° @ 0210 PM 65 30 96 27 30.08" 0 0.00 0  
Vigo Park  08:00 PM 42 33 71% S1112 21 mph 237° @ 0335 PM 64 30 100 31 30.09" 0 0.00 0  

West Texas Mesonet Home   Site Map/Menu  NWS Lubbock Soil Data  Daily Summary Page  24hr Precip  72hr Precip  Google Plot